Time;durP1;ratioP1;P1;durP2;ratioP2;P2;SDS_P1;SDS_P2;PMS_P1;PMS_P2;Temp;Humidity;BMP_temperature;BMP_pressure;BME280_temperature;BME280_humidity;BME280_pressure;Samples;Min_cycle;Max_cycle;Signal;HPM_P1;HPM_P2
2022/04/13 00:00:32;;;;;;;7.97;5.93;;;13.90;99.90;;;;;;4996092;28;20058;-64
2022/04/13 00:02:58;;;;;;;9.65;6.15;;;13.80;99.90;;;;;;5012012;28;20044;-63
2022/04/13 00:05:24;;;;;;;15.63;6.47;;;13.70;99.90;;;;;;5012135;28;20042;-64
2022/04/13 00:07:50;;;;;;;10.07;6.00;;;;;;;;;;5011881;28;20050;-63
2022/04/13 00:10:16;;;;;;;10.13;6.25;;;;;;;;;;4996918;28;20050;-63
2022/04/13 00:12:42;;;;;;;13.40;6.75;;;13.60;99.90;;;;;;5015413;28;20104;-64
2022/04/13 00:15:08;;;;;;;7.60;6.15;;;13.60;99.90;;;;;;5015589;28;20046;-63
2022/04/13 00:17:37;;;;;;;9.75;6.50;;;13.50;99.90;;;;;;5014253;28;20098;-63
2022/04/13 00:20:04;;;;;;;10.73;6.45;;;13.30;99.90;;;;;;5015511;28;20184;-63
2022/04/13 00:22:30;;;;;;;10.40;6.72;;;13.40;99.90;;;;;;5015435;28;20108;-63
2022/04/13 00:24:56;;;;;;;11.73;6.57;;;13.40;99.90;;;;;;5015346;28;20244;-63
2022/04/13 00:27:22;;;;;;;9.13;6.53;;;13.60;99.90;;;;;;5015231;28;20053;-63
2022/04/13 00:29:48;;;;;;;13.20;6.40;;;;;;;;;;5015378;28;20516;-63
2022/04/13 00:32:14;;;;;;;8.30;6.32;;;;;;;;;;4997541;28;20132;-64
2022/04/13 00:34:41;;;;;;;11.40;6.63;;;;;;;;;;5015382;28;20536;-63
2022/04/13 00:37:07;;;;;;;9.75;6.40;;;;;;;;;;5015382;28;20089;-64
2022/04/13 00:39:33;;;;;;;8.18;6.43;;;;;;;;;;4997640;28;20397;-63
2022/04/13 00:42:03;;;;;;;9.63;6.43;;;13.10;99.90;;;;;;5014895;28;20520;-63
2022/04/13 00:44:29;;;;;;;9.00;6.57;;;;;;;;;;5015133;28;20046;-63
2022/04/13 00:46:56;;;;;;;9.75;6.43;;;13.20;99.90;;;;;;5014967;28;20066;-63
2022/04/13 00:49:23;;;;;;;13.75;7.00;;;12.90;99.90;;;;;;5014947;28;20085;-63
2022/04/13 00:51:49;;;;;;;7.60;6.30;;;13.10;99.90;;;;;;5014861;28;20042;-63
2022/04/13 00:54:17;;;;;;;12.65;7.22;;;13.00;99.90;;;;;;4997471;28;20112;-66
2022/04/13 00:56:44;;;;;;;13.20;6.80;;;;;;;;;;4997269;28;20049;-71
2022/04/13 00:59:12;;;;;;;9.43;6.63;;;12.80;99.90;;;;;;5015050;28;20124;-71
2022/04/13 01:01:40;;;;;;;11.90;6.97;;;13.40;99.90;;;;;;4996883;28;20116;-71
2022/04/13 01:04:07;;;;;;;12.88;7.00;;;;;;;;;;5013592;28;20096;-71
2022/04/13 01:06:34;;;;;;;9.85;7.25;;;12.30;99.90;;;;;;5014737;28;20407;-71
2022/04/13 01:09:00;;;;;;;13.45;7.50;;;;;;;;;;5014787;28;20060;-71
2022/04/13 01:11:27;;;;;;;11.05;7.40;;;12.90;99.90;;;;;;4997224;28;20056;-71
2022/04/13 01:13:54;;;;;;;10.15;7.13;;;13.10;99.90;;;;;;5014644;28;20049;-71
2022/04/13 01:16:21;;;;;;;9.93;7.07;;;12.80;99.90;;;;;;5014978;28;20049;-71
2022/04/13 01:18:47;;;;;;;13.38;7.20;;;13.00;99.90;;;;;;5013292;28;20180;-71
2022/04/13 01:21:15;;;;;;;10.27;7.28;;;12.60;99.90;;;;;;4996902;28;20519;-71
2022/04/13 01:23:42;;;;;;;19.75;7.90;;;;;;;;;;5014422;28;20188;-71
2022/04/13 01:26:11;;;;;;;11.07;7.40;;;12.70;99.90;;;;;;4996768;28;20485;-71
2022/04/13 01:28:37;;;;;;;13.07;7.90;;;12.50;99.90;;;;;;5014441;28;20128;-71
2022/04/13 01:31:04;;;;;;;10.77;8.00;;;12.60;99.90;;;;;;5014325;28;20053;-71
2022/04/13 01:33:30;;;;;;;11.70;7.88;;;13.00;99.90;;;;;;5014337;28;20489;-71
2022/04/13 01:36:00;;;;;;;10.95;7.90;;;12.50;99.90;;;;;;5014253;28;20436;-71
2022/04/13 01:38:27;;;;;;;14.35;8.20;;;11.90;99.90;;;;;;5014510;28;20171;-71
2022/04/13 01:40:54;;;;;;;10.80;8.05;;;12.40;99.90;;;;;;5014462;28;20496;-71
2022/04/13 01:43:19;;;;;;;13.55;8.05;;;12.40;99.90;;;;;;4996686;28;20116;-71
2022/04/13 01:45:45;;;;;;;12.55;8.00;;;12.60;99.90;;;;;;5014133;28;20045;-71
2022/04/13 01:48:11;;;;;;;11.55;8.10;;;;;;;;;;5014279;28;20050;-71
2022/04/13 01:50:37;;;;;;;11.18;8.02;;;12.00;99.90;;;;;;5013915;28;20054;-71
2022/04/13 01:53:02;;;;;;;11.82;8.32;;;12.10;99.90;;;;;;5014026;28;20076;-71
2022/04/13 01:55:28;;;;;;;11.10;7.50;;;;;;;;;;5014121;28;20117;-71
2022/04/13 01:57:54;;;;;;;10.70;8.07;;;;;;;;;;5013870;28;20052;-71
2022/04/13 02:00:20;;;;;;;13.38;8.10;;;;;;;;;;5013971;28;20054;-71
2022/04/13 02:02:46;;;;;;;12.32;8.27;;;12.50;99.90;;;;;;5013890;28;20045;-71
2022/04/13 02:05:12;;;;;;;13.20;8.27;;;;;;;;;;5013682;28;20046;-71
2022/04/13 02:07:38;;;;;;;10.43;8.23;;;;;;;;;;5013763;28;20053;-71
2022/04/13 02:10:05;;;;;;;13.90;8.68;;;11.70;99.90;;;;;;5013864;28;20050;-71
2022/04/13 02:12:32;;;;;;;14.95;9.15;;;;;;;;;;5013743;28;20042;-71
2022/04/13 02:14:58;;;;;;;14.80;8.98;;;;;;;;;;5013723;28;20050;-71
2022/04/13 02:17:24;;;;;;;13.00;8.45;;;;;;;;;;5013481;28;20054;-71
2022/04/13 02:19:50;;;;;;;16.63;8.55;;;12.10;99.90;;;;;;5013432;28;20049;-71
2022/04/13 02:22:15;;;;;;;10.70;8.68;;;11.60;99.90;;;;;;5013607;28;20050;-71
2022/04/13 02:24:42;;;;;;;15.57;8.60;;;;;;;;;;5013789;28;20081;-71
2022/04/13 02:27:09;;;;;;;16.02;9.05;;;;;;;;;;5013327;28;20133;-71
2022/04/13 02:29:36;;;;;;;13.63;8.95;;;11.90;99.90;;;;;;5013327;28;20509;-71
2022/04/13 02:32:05;;;;;;;15.63;9.50;;;11.60;99.90;;;;;;4995235;28;20054;-71
2022/04/13 02:34:31;;;;;;;17.42;9.60;;;11.80;99.90;;;;;;5013061;28;20050;-71
2022/04/13 02:36:56;;;;;;;11.75;9.27;;;11.40;99.90;;;;;;4995669;28;20128;-71
2022/04/13 02:39:23;;;;;;;13.82;9.35;;;;;;;;;;5013393;28;20131;-71
2022/04/13 02:41:49;;;;;;;16.05;9.23;;;;;;;;;;5013078;28;20064;-72
2022/04/13 02:44:15;;;;;;;12.27;9.07;;;;;;;;;;5013158;28;20042;-71
2022/04/13 02:46:41;;;;;;;14.90;9.60;;;;;;;;;;5012960;28;20049;-71
2022/04/13 02:49:08;;;;;;;13.55;9.00;;;;;;;;;;5012872;28;20046;-71
2022/04/13 02:51:33;;;;;;;15.43;9.73;;;11.30;99.90;;;;;;5012944;28;20132;-72
2022/04/13 02:53:59;;;;;;;12.27;9.25;;;10.60;99.90;;;;;;5011769;28;20125;-72
2022/04/13 02:56:25;;;;;;;12.10;9.63;;;11.10;99.90;;;;;;5013153;28;20077;-71
2022/04/13 02:58:50;;;;;;;16.10;9.82;;;11.20;99.90;;;;;;5012901;28;20054;-71
2022/04/13 03:01:16;;;;;;;12.57;9.27;;;11.60;99.90;;;;;;5012705;28;20460;-71
2022/04/13 03:03:41;;;;;;;14.57;9.45;;;10.90;99.90;;;;;;5013176;28;20061;-71
2022/04/13 03:06:07;;;;;;;14.50;9.63;;;11.00;99.90;;;;;;5012895;28;20052;-71
2022/04/13 03:08:33;;;;;;;15.52;9.35;;;;;;;;;;5012750;28;20052;-71
2022/04/13 03:10:59;;;;;;;15.95;10.40;;;;;;;;;;5012647;28;20046;-71
2022/04/13 03:13:25;;;;;;;15.27;10.15;;;;;;;;;;5012475;28;20172;-72
2022/04/13 03:15:51;;;;;;;13.18;9.95;;;10.90;99.90;;;;;;5010432;28;20089;-71
2022/04/13 03:18:16;;;;;;;13.43;9.68;;;10.60;99.90;;;;;;5012551;28;20092;-71
2022/04/13 03:20:43;;;;;;;16.67;10.50;;;;;;;;;;4995037;28;20062;-71
2022/04/13 03:23:08;;;;;;;19.40;10.82;;;10.70;99.90;;;;;;5012798;28;20056;-71
2022/04/13 03:25:34;;;;;;;13.82;9.32;;;11.20;99.90;;;;;;4978831;28;20050;-71
2022/04/13 03:28:00;;;;;;;15.70;10.30;;;11.20;99.90;;;;;;5012793;28;20057;-71
2022/04/13 03:30:29;;;;;;;14.18;9.95;;;;;;;;;;5012546;28;20042;-71
2022/04/13 03:32:55;;;;;;;16.00;9.88;;;;;;;;;;5012794;28;20118;-71
2022/04/13 03:35:22;;;;;;;17.48;10.20;;;;;;;;;;5012407;28;20554;-71
2022/04/13 03:37:48;;;;;;;16.23;10.40;;;;;;;;;;5012586;28;20062;-71
2022/04/13 03:40:14;;;;;;;16.98;10.52;;;;;;;;;;5012524;28;20054;-72
2022/04/13 03:42:41;;;;;;;15.95;10.55;;;10.50;99.90;;;;;;5011466;28;20057;-72
2022/04/13 03:45:10;;;;;;;17.58;10.75;;;10.50;99.90;;;;;;5014730;28;20171;-71
2022/04/13 03:47:37;;;;;;;17.48;10.38;;;;;;;;;;4998603;28;20485;-72
2022/04/13 03:50:03;;;;;;;16.15;11.05;;;10.00;99.90;;;;;;5016508;28;20050;-71
2022/04/13 03:52:34;;;;;;;15.73;10.93;;;10.20;99.90;;;;;;4998945;28;20496;-71
2022/04/13 03:55:01;;;;;;;15.50;11.07;;;10.40;99.90;;;;;;5016673;28;20045;-71
2022/04/13 03:57:30;;;;;;;16.40;11.10;;;9.90;99.90;;;;;;5016112;28;20056;-71
2022/04/13 03:59:56;;;;;;;16.33;11.10;;;;;;;;;;5015941;28;20056;-71
2022/04/13 04:02:22;;;;;;;18.08;11.57;;;10.40;99.90;;;;;;4998172;28;20046;-72
2022/04/13 04:04:48;;;;;;;15.50;11.18;;;;;;;;;;5016113;28;20057;-72
2022/04/13 04:07:14;;;;;;;16.50;11.60;;;10.30;99.90;;;;;;5014703;28;20049;-72
2022/04/13 04:09:40;;;;;;;16.40;11.30;;;;;;;;;;5016012;28;20361;-71
2022/04/13 04:12:06;;;;;;;17.85;10.98;;;;;;;;;;5016398;28;20390;-71
2022/04/13 04:14:32;;;;;;;19.15;11.05;;;;;;;;;;5015758;28;20045;-71
2022/04/13 04:16:57;;;;;;;15.68;11.60;;;10.40;99.90;;;;;;5015911;28;20046;-71
2022/04/13 04:19:23;;;;;;;16.23;11.88;;;;;;;;;;5015866;28;20112;-71
2022/04/13 04:21:50;;;;;;;19.80;11.93;;;;;;;;;;5015612;28;20046;-71
2022/04/13 04:24:16;;;;;;;21.88;13.13;;;;;;;;;;5015674;28;20104;-71
2022/04/13 04:26:43;;;;;;;19.70;12.30;;;10.50;99.90;;;;;;4997704;28;20050;-71
2022/04/13 04:29:09;;;;;;;20.38;12.27;;;;;;;;;;4997697;28;21138;-72
2022/04/13 04:31:50;;;;;;;16.23;11.52;;;11.20;99.90;;;;;;5015028;28;20058;-71
2022/04/13 04:34:22;;;;;;;17.27;12.30;;;10.20;99.90;;;;;;5015450;28;20049;-71
2022/04/13 04:36:47;;;;;;;21.45;12.95;;;10.00;99.90;;;;;;4997763;28;20053;-72
2022/04/13 04:39:13;;;;;;;19.50;12.90;;;10.90;99.90;;;;;;4997736;28;20135;-71
2022/04/13 04:41:43;;;;;;;15.93;12.95;;;10.30;99.90;;;;;;4997831;28;20076;-72
2022/04/13 04:44:09;;;;;;;17.52;12.52;;;10.30;99.90;;;;;;5015828;28;20436;-72
2022/04/13 04:46:36;;;;;;;15.65;12.50;;;10.30;99.90;;;;;;4997536;28;20108;-71
2022/04/13 04:49:03;;;;;;;18.85;12.27;;;10.30;99.90;;;;;;5014848;28;20124;-72
2022/04/13 04:51:31;;;;;;;24.58;12.90;;;10.30;99.90;;;;;;4997498;28;20073;-72
2022/04/13 04:53:57;;;;;;;19.63;12.43;;;;;;;;;;4997683;28;20427;-71
2022/04/13 04:56:23;;;;;;;20.33;12.73;;;10.30;99.90;;;;;;5014735;28;20037;-71
2022/04/13 04:58:49;;;;;;;20.17;13.07;;;;;;;;;;4997195;28;20504;-72
2022/04/13 05:01:15;;;;;;;19.88;13.80;;;;;;;;;;5014738;28;20441;-71
2022/04/13 05:03:43;;;;;;;24.00;13.60;;;10.30;99.90;;;;;;5014955;28;20053;-72
2022/04/13 05:06:09;;;;;;;23.92;14.48;;;10.70;99.90;;;;;;4997047;28;20070;-72
2022/04/13 05:08:35;;;;;;;19.85;13.90;;;;;;;;;;4997414;28;20076;-72
2022/04/13 05:11:02;;;;;;;22.85;14.50;;;;;;;;;;4996854;28;20160;-72
2022/04/13 05:13:29;;;;;;;21.80;14.30;;;;;;;;;;5014644;28;20054;-72
2022/04/13 05:15:55;;;;;;;25.52;14.75;;;10.50;99.90;;;;;;5014350;28;20045;-71
2022/04/13 05:18:21;;;;;;;23.67;13.70;;;;;;;;;;5014366;28;20408;-72
2022/04/13 05:20:47;;;;;;;25.08;13.25;;;;;;;;;;4996579;28;20111;-72
2022/04/13 05:23:12;;;;;;;30.08;14.00;;;10.40;99.90;;;;;;4996489;28;20058;-72
2022/04/13 05:25:38;;;;;;;20.77;13.32;;;10.60;99.90;;;;;;4996932;28;20050;-71
2022/04/13 05:28:04;;;;;;;19.95;13.65;;;;;;;;;;5014024;28;20049;-71
2022/04/13 05:30:30;;;;;;;28.45;13.80;;;10.30;99.90;;;;;;4996334;28;20088;-72
2022/04/13 05:32:58;;;;;;;19.88;13.90;;;10.90;99.90;;;;;;5013937;28;20050;-71
2022/04/13 05:35:25;;;;;;;29.73;14.18;;;11.00;99.90;;;;;;5013912;28;20060;-72
2022/04/13 05:37:52;;;;;;;23.95;14.02;;;11.00;99.90;;;;;;5013714;28;20464;-72
2022/04/13 05:40:18;;;;;;;23.10;14.07;;;11.20;99.90;;;;;;5013641;28;20128;-72
2022/04/13 05:42:44;;;;;;;34.17;14.77;;;;;;;;;;5013638;28;20054;-72
2022/04/13 05:45:11;;;;;;;55.22;16.42;;;11.50;99.90;;;;;;4997718;28;20093;-72
2022/04/13 05:47:38;;;;;;;104.35;19.92;;;;;;;;;;4994216;28;20081;-72
2022/04/13 05:50:05;;;;;;;162.63;23.70;;;;;;;;;;4994101;28;20188;-72
2022/04/13 05:52:31;;;;;;;184.32;24.70;;;;;;;;;;4993859;28;20497;-63
2022/04/13 05:54:57;;;;;;;112.22;20.95;;;12.40;99.90;;;;;;4976544;28;20047;-63
2022/04/13 05:57:23;;;;;;;102.65;18.42;;;;;;;;;;4993083;28;20057;-63
2022/04/13 05:59:49;;;;;;;27.15;15.00;;;;;;;;;;5002634;28;20137;-63
2022/04/13 06:02:15;;;;;;;19.75;13.65;;;;;;;;;;4994876;28;20441;-64
2022/04/13 06:04:41;;;;;;;28.17;13.75;;;13.60;99.90;;;;;;4986857;28;20493;-63
2022/04/13 06:07:07;;;;;;;27.02;13.57;;;;;;;;;;4974782;28;20057;-63
2022/04/13 06:09:34;;;;;;;28.27;13.85;;;;;;;;;;4986989;28;20046;-63
2022/04/13 06:12:00;;;;;;;27.23;14.05;;;14.30;99.90;;;;;;4993646;28;20054;-63
2022/04/13 06:14:25;;;;;;;25.50;13.27;;;15.00;99.90;;;;;;4986600;28;20050;-64
2022/04/13 06:16:51;;;;;;;21.27;13.35;;;;;;;;;;4975129;28;20097;-63
2022/04/13 06:19:17;;;;;;;27.38;12.68;;;;;;;;;;4992556;28;20129;-64
2022/04/13 06:21:43;;;;;;;24.50;12.98;;;;;;;;;;4975056;28;20058;-63
2022/04/13 06:24:09;;;;;;;28.88;12.75;;;15.70;99.90;;;;;;4975710;28;20398;-63
2022/04/13 06:26:35;;;;;;;24.70;12.10;;;;;;;;;;4992060;28;20050;-63
2022/04/13 06:29:01;;;;;;;24.38;12.80;;;;;;;;;;4991481;28;20042;-63
2022/04/13 06:31:27;;;;;;;20.77;12.52;;;;;;;;;;4999804;28;20043;-63
2022/04/13 06:33:53;;;;;;;26.50;13.18;;;15.80;99.90;;;;;;4975337;28;20446;-63
2022/04/13 06:36:20;;;;;;;20.85;12.55;;;;;;;;;;4998034;28;20050;-63
2022/04/13 06:38:46;;;;;;;31.17;12.35;;;16.70;99.90;;;;;;5001622;28;20042;-63
2022/04/13 06:41:11;;;;;;;19.63;12.68;;;17.20;99.90;;;;;;5002802;28;20176;-63
2022/04/13 06:43:38;;;;;;;26.30;11.57;;;17.60;99.90;;;;;;4985349;28;20046;-63
2022/04/13 06:46:04;;;;;;;21.58;12.00;;;;;;;;;;5000023;28;20053;-63
2022/04/13 06:48:30;;;;;;;17.50;11.45;;;;;;;;;;5004169;28;20060;-63
2022/04/13 06:50:57;;;;;;;17.88;11.13;;;;;;;;;;5008419;28;20034;-63
2022/04/13 06:53:24;;;;;;;23.65;12.65;;;19.20;99.90;;;;;;4977254;28;20153;-61
2022/04/13 06:55:50;;;;;;;20.63;11.80;;;19.30;99.90;;;;;;5000654;28;20049;-61
2022/04/13 06:58:16;;;;;;;17.20;11.30;;;19.60;99.90;;;;;;5003166;28;20041;-62
2022/04/13 07:00:42;;;;;;;30.95;11.90;;;;;;;;;;4966206;28;20133;-61
2022/04/13 07:03:08;;;;;;;30.75;12.13;;;19.50;99.90;;;;;;4983216;28;20049;-61
2022/04/13 07:05:34;;;;;;;23.92;11.38;;;19.30;99.60;;;;;;4985934;28;20377;-61
2022/04/13 07:08:00;;;;;;;20.80;11.32;;;;;;;;;;5001059;28;20042;-61
2022/04/13 07:10:27;;;;;;;22.17;10.90;;;;;;;;;;5004908;28;20448;-61
2022/04/13 07:12:54;;;;;;;25.80;11.18;;;19.20;99.90;;;;;;4986524;28;20125;-61
2022/04/13 07:15:20;;;;;;;23.20;10.80;;;;;;;;;;4985699;28;20625;-61
2022/04/13 07:17:46;;;;;;;21.80;11.02;;;20.00;97.80;;;;;;4999532;28;20038;-61
2022/04/13 07:20:13;;;;;;;19.35;10.68;;;20.50;95.30;;;;;;4994387;28;20053;-61
2022/04/13 07:22:45;;;;;;;19.20;9.63;;;20.90;92.90;;;;;;5005541;28;20117;-61
2022/04/13 07:25:12;;;;;;;16.80;9.50;;;21.40;98.40;;;;;;5006926;28;20109;-61
2022/04/13 07:27:38;;;;;;;19.15;9.60;;;20.80;95.70;;;;;;4993486;28;20084;-61
2022/04/13 07:30:04;;;;;;;16.08;9.30;;;;;;;;;;4991349;28;20086;-61
2022/04/13 07:32:30;;;;;;;13.98;9.30;;;;;;;;;;4998542;28;20057;-61
2022/04/13 07:34:59;;;;;;;17.02;7.95;;;22.40;88.00;;;;;;5001678;28;20050;-61
2022/04/13 07:37:26;;;;;;;17.77;7.70;;;23.30;71.60;;;;;;5006622;28;20054;-61
2022/04/13 07:39:52;;;;;;;15.23;7.10;;;23.60;68.80;;;;;;5001914;28;20049;-63
2022/04/13 07:42:22;;;;;;;12.63;7.22;;;23.70;66.40;;;;;;4998815;28;20389;-64
2022/04/13 07:44:48;;;;;;;12.60;7.20;;;22.90;69.50;;;;;;4979230;28;20455;-63
2022/04/13 07:47:20;;;;;;;12.43;7.22;;;24.10;90.60;;;;;;4996134;28;20093;-63
2022/04/13 07:49:46;;;;;;;17.23;7.47;;;23.90;64.80;;;;;;4988547;28;20116;-63
2022/04/13 07:52:13;;;;;;;14.73;7.38;;;;;;;;;;4975304;28;20163;-63
2022/04/13 07:54:39;;;;;;;22.85;7.28;;;;;;;;;;4982353;28;20050;-63
2022/04/13 07:57:05;;;;;;;15.45;6.90;;;;;;;;;;4984771;28;20132;-63
2022/04/13 07:59:31;;;;;;;16.45;7.10;;;;;;;;;;5004659;28;20481;-63
2022/04/13 08:01:58;;;;;;;12.82;7.00;;;20.70;84.70;;;;;;4977860;28;20434;-63
2022/04/13 08:04:24;;;;;;;18.65;7.38;;;;;;;;;;4981276;28;20050;-63
2022/04/13 08:06:51;;;;;;;12.75;7.25;;;21.30;89.60;;;;;;4977585;28;20426;-63
2022/04/13 08:09:17;;;;;;;12.60;6.47;;;;;;;;;;5005247;28;20133;-63
2022/04/13 08:11:45;;;;;;;12.75;6.32;;;;;;;;;;5001636;28;20053;-63
2022/04/13 08:14:11;;;;;;;17.67;6.88;;;21.00;99.90;;;;;;4978161;28;20067;-63
2022/04/13 08:16:37;;;;;;;12.30;6.13;;;20.50;99.90;;;;;;4998101;28;20549;-63
2022/04/13 08:19:05;;;;;;;13.52;6.47;;;20.60;98.70;;;;;;4978952;28;20054;-63
2022/04/13 08:21:31;;;;;;;10.65;5.95;;;;;;;;;;4996797;28;20050;-64
2022/04/13 08:23:57;;;;;;;14.77;6.10;;;;;;;;;;4983020;28;20136;-63
2022/04/13 08:26:23;;;;;;;10.55;5.90;;;21.10;99.90;;;;;;5003724;28;20077;-63
2022/04/13 08:28:48;;;;;;;9.75;5.97;;;20.30;99.90;;;;;;5000005;28;20497;-63
2022/04/13 08:31:14;;;;;;;11.07;6.20;;;;;;;;;;4974003;28;20050;-64
2022/04/13 08:33:40;;;;;;;13.13;6.55;;;20.30;99.90;;;;;;4980685;28;20043;-63
2022/04/13 08:36:06;;;;;;;14.45;6.30;;;19.80;99.90;;;;;;4984752;28;20034;-63
2022/04/13 08:38:32;;;;;;;12.68;6.55;;;19.50;99.90;;;;;;4982790;28;20056;-63
2022/04/13 08:41:00;;;;;;;11.00;6.15;;;19.50;99.90;;;;;;4991673;28;20133;-63
2022/04/13 08:43:45;;;;;;;12.05;6.68;;;19.20;99.90;;;;;;4991613;28;20065;-63
2022/04/13 08:46:23;;;;;;;12.75;8.00;;;19.10;99.90;;;;;;5003378;28;20046;-63
2022/04/13 08:48:51;;;;;;;14.20;7.07;;;19.00;99.90;;;;;;4993033;28;20783;-63
2022/04/13 08:51:21;;;;;;;15.15;7.25;;;18.90;99.90;;;;;;5009666;28;20041;-63
2022/04/13 08:53:50;;;;;;;15.25;7.55;;;18.80;99.90;;;;;;5004167;28;20050;-64
2022/04/13 08:56:19;;;;;;;16.05;7.13;;;19.80;99.90;;;;;;4992993;28;20065;-64
2022/04/13 08:59:01;;;;;;;15.27;7.93;;;19.00;99.90;;;;;;5008070;28;20049;-64
2022/04/13 09:01:32;;;;;;;13.00;7.45;;;19.20;99.90;;;;;;5006032;28;20050;-63
2022/04/13 09:04:05;;;;;;;16.73;7.40;;;19.40;99.90;;;;;;4993823;28;20054;-63
2022/04/13 09:06:33;;;;;;;14.35;7.88;;;19.20;99.90;;;;;;5000002;28;20133;-64
2022/04/13 09:09:01;;;;;;;15.57;8.20;;;19.20;99.90;;;;;;5006855;28;20034;-63
2022/04/13 09:11:28;;;;;;;16.45;8.35;;;19.00;99.90;;;;;;5009339;28;20096;-63
2022/04/13 09:13:54;;;;;;;15.52;7.90;;;19.00;99.90;;;;;;4986122;28;20569;-63
2022/04/13 09:16:20;;;;;;;15.50;8.30;;;;;;;;;;5004496;28;20038;-63
2022/04/13 09:18:46;;;;;;;15.77;8.15;;;19.00;99.90;;;;;;5007828;28;20046;-63
2022/04/13 09:21:14;;;;;;;14.15;8.30;;;20.30;99.90;;;;;;5003770;28;20202;-64
2022/04/13 09:23:40;;;;;;;17.45;7.93;;;19.00;99.90;;;;;;5002103;28;20030;-64
2022/04/13 09:26:08;;;;;;;16.67;7.95;;;19.10;99.90;;;;;;5008838;28;20045;-63
2022/04/13 09:28:34;;;;;;;15.32;7.68;;;;;;;;;;4981335;28;20497;-64
2022/04/13 09:31:00;;;;;;;14.48;7.63;;;19.00;99.90;;;;;;5001259;28;20049;-61
2022/04/13 09:33:26;;;;;;;16.48;7.43;;;;;;;;;;4998077;28;20130;-62
2022/04/13 09:35:53;;;;;;;13.43;7.93;;;19.20;99.90;;;;;;4988939;28;20046;-62
2022/04/13 09:38:19;;;;;;;12.40;7.93;;;19.10;99.90;;;;;;4999566;28;20094;-62
2022/04/13 09:40:45;;;;;;;16.52;7.72;;;19.40;99.90;;;;;;5000748;28;20061;-62
2022/04/13 09:43:13;;;;;;;15.65;8.02;;;19.40;99.90;;;;;;4983616;28;20485;-62
2022/04/13 09:45:44;;;;;;;16.85;8.43;;;19.50;99.90;;;;;;5007317;28;20050;-62
2022/04/13 09:48:21;;;;;;;28.25;8.85;;;19.50;99.90;;;;;;5003776;28;20121;-64
2022/04/13 09:50:48;;;;;;;15.20;7.93;;;19.70;99.90;;;;;;4989282;28;20056;-64
2022/04/13 09:53:16;;;;;;;12.25;7.15;;;19.20;99.90;;;;;;4984219;28;20042;-62
2022/04/13 09:55:44;;;;;;;12.85;7.22;;;19.70;99.90;;;;;;5004706;28;20461;-62
2022/04/13 09:58:12;;;;;;;12.95;6.78;;;19.60;99.90;;;;;;4999997;28;20093;-62
2022/04/13 10:00:40;;;;;;;13.38;7.75;;;19.70;99.90;;;;;;4982396;28;20129;-62
2022/04/13 10:03:12;;;;;;;12.60;6.80;;;19.70;99.90;;;;;;4994986;28;20415;-62
2022/04/13 10:05:41;;;;;;;14.48;6.80;;;19.80;99.90;;;;;;4994566;28;20501;-62
2022/04/13 10:08:08;;;;;;;24.98;6.40;;;20.00;99.90;;;;;;4979353;28;20057;-62
2022/04/13 10:10:35;;;;;;;14.50;6.60;;;20.30;99.90;;;;;;4997676;28;20050;-63
2022/04/13 10:13:02;;;;;;;12.48;6.40;;;;;;;;;;5008136;28;20050;-62
2022/04/13 10:15:28;;;;;;;12.25;6.57;;;;;;;;;;4985667;28;20104;-65
2022/04/13 10:17:58;;;;;;;13.90;6.65;;;20.20;99.90;;;;;;4981333;28;20069;-63
2022/04/13 10:20:48;;;;;;;19.40;6.70;;;20.10;99.90;;;;;;5004457;28;20045;-62
2022/04/13 10:23:15;;;;;;;10.48;6.63;;;;;;;;;;4996276;28;20046;-63
2022/04/13 10:25:44;;;;;;;12.93;6.15;;;20.10;99.90;;;;;;4993073;28;20069;-62
2022/04/13 10:28:14;;;;;;;12.98;7.03;;;;;;;;;;5005736;28;20151;-65
2022/04/13 10:30:43;;;;;;;11.93;6.90;;;20.20;99.90;;;;;;4978421;28;20045;-65
2022/04/13 10:33:13;;;;;;;16.23;7.15;;;20.10;99.90;;;;;;4981774;28;20530;-65
2022/04/13 10:35:43;;;;;;;16.85;7.70;;;20.00;99.90;;;;;;4987631;28;20134;-64
2022/04/13 10:38:10;;;;;;;14.90;7.30;;;20.00;99.90;;;;;;4984294;28;20067;-64
2022/04/13 10:40:39;;;;;;;20.23;6.55;;;20.00;99.90;;;;;;4999156;28;20045;-62
2022/04/13 10:43:06;;;;;;;21.77;8.05;;;21.00;99.90;;;;;;5001226;28;20469;-65
2022/04/13 10:45:35;;;;;;;16.75;7.60;;;20.20;99.90;;;;;;5004557;28;20485;-64
2022/04/13 10:48:06;;;;;;;17.83;8.10;;;20.20;99.90;;;;;;4983909;28;20065;-64
2022/04/13 10:50:59;;;;;;;13.75;7.50;;;20.60;99.90;;;;;;4986691;28;20038;-64
2022/04/13 10:53:25;;;;;;;12.70;7.13;;;;;;;;;;4984576;28;20060;-62
2022/04/13 10:56:05;;;;;;;14.60;7.70;;;20.20;99.90;;;;;;4982559;28;20046;-62
2022/04/13 10:58:59;;;;;;;11.95;6.45;;;20.00;99.90;;;;;;4993864;28;20089;-62
2022/04/13 11:01:35;;;;;;;11.52;6.40;;;20.00;99.90;;;;;;5001350;28;20105;-62
2022/04/13 11:04:01;;;;;;;13.48;6.55;;;20.10;99.90;;;;;;4997456;28;20054;-62
2022/04/13 11:06:27;;;;;;;13.23;6.85;;;19.80;99.90;;;;;;4990615;28;20057;-62
2022/04/13 11:09:04;;;;;;;12.98;7.03;;;19.80;99.90;;;;;;5009869;28;20053;-62
2022/04/13 11:11:31;;;;;;;16.92;7.68;;;19.90;99.90;;;;;;4994848;28;20494;-62
2022/04/13 11:13:57;;;;;;;18.40;7.68;;;;;;;;;;4992745;28;20058;-62
2022/04/13 11:16:25;;;;;;;14.40;7.55;;;19.70;99.90;;;;;;4980280;28;20053;-62
2022/04/13 11:19:06;;;;;;;13.88;7.25;;;19.70;99.90;;;;;;5000793;28;20037;-62
2022/04/13 11:21:55;;;;;;;13.27;6.45;;;19.70;99.90;;;;;;4990394;28;20465;-62
2022/04/13 11:24:33;;;;;;;12.77;6.63;;;19.60;99.90;;;;;;4983189;28;20121;-62
2022/04/13 11:26:59;;;;;;;11.50;6.55;;;19.20;99.90;;;;;;5005900;28;20129;-62
2022/04/13 11:29:32;;;;;;;314.58;30.45;;;19.50;99.90;;;;;;5007960;28;20069;-62
2022/04/13 11:32:01;;;;;;;11.38;6.60;;;19.40;99.90;;;;;;4999242;28;20043;-62
2022/04/13 11:34:51;;;;;;;11.30;6.90;;;19.40;99.90;;;;;;4996461;28;20058;-62
2022/04/13 11:37:43;;;;;;;10.88;7.15;;;19.50;99.90;;;;;;5000349;28;20109;-62
2022/04/13 11:40:21;;;;;;;16.40;7.57;;;19.30;99.90;;;;;;4912375;29;20491;-63
2022/04/13 11:42:49;;;;;;;10.93;6.75;;;19.30;99.90;;;;;;4917940;29;20056;-61
2022/04/13 11:45:17;;;;;;;10.57;6.55;;;19.20;99.90;;;;;;4918765;29;20150;-62
2022/04/13 11:47:44;;;;;;;12.93;6.93;;;19.00;99.90;;;;;;4911828;29;20056;-62
2022/04/13 11:50:20;;;;;;;12.30;6.80;;;19.10;99.90;;;;;;4928941;29;20052;-62
2022/04/13 11:52:54;;;;;;;13.93;7.30;;;19.00;99.90;;;;;;4915483;29;20123;-62
2022/04/13 11:55:37;;;;;;;11.98;6.70;;;18.80;99.90;;;;;;4921989;29;20039;-62
2022/04/13 11:58:08;;;;;;;14.38;6.85;;;19.00;99.90;;;;;;4923603;29;20091;-62
2022/04/13 12:00:55;;;;;;;11.55;6.75;;;19.70;99.90;;;;;;4927530;29;20044;-63
2022/04/13 12:03:24;;;;;;;13.73;6.20;;;18.80;99.90;;;;;;4922201;29;20094;-62
2022/04/13 12:05:52;;;;;;;11.82;6.22;;;18.70;99.90;;;;;;4916743;29;20066;-62
2022/04/13 12:08:38;;;;;;;9.50;5.70;;;18.80;99.90;;;;;;4899926;29;20161;-62
2022/04/13 12:11:11;;;;;;;11.25;5.60;;;19.00;99.90;;;;;;4931737;29;20115;-62
2022/04/13 12:13:57;;;;;;;8.98;4.75;;;18.70;99.90;;;;;;4933564;29;20036;-62
2022/04/13 12:16:25;;;;;;;8.98;4.43;;;18.70;99.90;;;;;;4937794;28;20129;-62
2022/04/13 12:18:53;;;;;;;14.18;4.85;;;18.80;99.90;;;;;;4986239;28;20508;-62
2022/04/13 12:21:26;;;;;;;14.18;5.32;;;18.90;99.90;;;;;;4983522;28;20047;-65
2022/04/13 12:23:53;;;;;;;13.10;6.18;;;;;;;;;;4974851;28;20053;-64
2022/04/13 12:26:47;;;;;;;14.90;6.13;;;19.00;99.90;;;;;;4975385;28;20126;-62
2022/04/13 12:29:15;;;;;;;10.40;7.05;;;19.00;99.90;;;;;;4975974;28;20481;-62
2022/04/13 12:31:49;;;;;;;12.25;6.53;;;19.20;99.90;;;;;;4957218;28;20051;-62
2022/04/13 12:34:22;;;;;;;14.35;7.15;;;19.10;99.90;;;;;;4986719;28;20049;-62
2022/04/13 12:36:54;;;;;;;18.25;7.60;;;19.30;99.90;;;;;;4963174;28;20059;-63
2022/04/13 12:39:31;;;;;;;12.98;6.68;;;19.60;99.90;;;;;;4984191;28;20100;-62
2022/04/13 12:41:57;;;;;;;16.45;6.32;;;;;;;;;;4993528;28;20046;-62
2022/04/13 12:44:23;;;;;;;16.35;5.72;;;;;;;;;;4986143;28;20050;-62
2022/04/13 12:46:50;;;;;;;64.45;7.03;;;18.30;99.90;;;;;;4977398;28;20055;-62
2022/04/13 12:49:20;;;;;;;13.45;6.00;;;19.10;99.90;;;;;;4980950;28;20085;-64
2022/04/13 12:51:47;;;;;;;12.40;6.35;;;19.00;99.90;;;;;;4979469;28;20065;-63
2022/04/13 12:54:17;;;;;;;24.42;6.55;;;19.00;99.90;;;;;;4979358;28;20123;-63
2022/04/13 12:56:48;;;;;;;8.75;5.10;;;18.90;99.90;;;;;;4957695;28;20129;-62
2022/04/13 12:59:18;;;;;;;10.38;4.88;;;18.90;99.90;;;;;;4976658;28;20038;-62
2022/04/13 13:01:47;;;;;;;600.33;62.50;;;18.90;99.90;;;;;;4985371;28;20050;-62
2022/04/13 13:04:14;;;;;;;13.00;5.20;;;18.70;99.90;;;;;;4998067;28;20053;-62
2022/04/13 13:07:12;;;;;;;11.80;3.90;;;18.70;99.90;;;;;;4992202;28;20120;-63
2022/04/13 13:09:39;;;;;;;7.93;3.50;;;18.80;99.90;;;;;;4971697;28;20041;-63
2022/04/13 13:12:09;;;;;;;9.60;3.35;;;18.50;99.90;;;;;;5006096;28;20137;-62